createdAt,value
2022-12-04T00:00:52.818Z,546.15
2022-12-04T00:03:19.595Z,549.72
2022-12-04T00:05:46.213Z,551.63
2022-12-04T00:08:13.031Z,543.72
2022-12-04T00:10:43.981Z,532.23
2022-12-04T00:13:10.643Z,541.50
2022-12-04T00:15:42.376Z,542.63
2022-12-04T00:18:09.021Z,539.67
2022-12-04T00:20:40.263Z,540.80
2022-12-04T00:23:07.440Z,543.40
2022-12-04T00:25:39.260Z,538.75
2022-12-04T00:28:07.658Z,542.22
2022-12-04T00:30:34.182Z,552.03
2022-12-04T00:33:00.824Z,545.03
2022-12-04T00:35:27.307Z,542.23
2022-12-04T00:37:53.878Z,547.15
2022-12-04T00:40:20.546Z,545.63
2022-12-04T00:42:47.158Z,543.33
2022-12-04T00:45:13.712Z,551.30
2022-12-04T00:47:40.359Z,542.83
2022-12-04T00:50:07.642Z,530.38
2022-12-04T00:52:34.326Z,533.40
2022-12-04T00:55:01.004Z,540.90
2022-12-04T00:57:27.649Z,538.08
2022-12-04T00:59:54.365Z,536.33
2022-12-04T01:02:21.250Z,546.45
2022-12-04T01:04:47.937Z,540.05
2022-12-04T01:07:14.559Z,542.77
2022-12-04T01:09:41.167Z,540.20
2022-12-04T01:12:07.809Z,540.13
2022-12-04T01:14:34.354Z,541.80
2022-12-04T01:17:01.067Z,541.53
2022-12-04T01:19:27.662Z,545.15
2022-12-04T01:21:54.236Z,536.97
2022-12-04T01:24:21.549Z,542.00
2022-12-04T01:26:48.166Z,537.92
2022-12-04T01:29:14.693Z,540.40
2022-12-04T01:31:41.454Z,536.50
2022-12-04T01:34:08.037Z,539.47
2022-12-04T01:36:34.634Z,546.72
2022-12-04T01:39:01.397Z,543.97
2022-12-04T01:41:30.363Z,546.40
2022-12-04T01:44:18.740Z,544.47
2022-12-04T01:46:49.831Z,550.25
2022-12-04T01:49:31.187Z,556.38
2022-12-04T01:52:02.202Z,548.70
2022-12-04T01:54:34.799Z,550.33
2022-12-04T01:57:11.747Z,542.15
2022-12-04T01:59:46.138Z,542.55
2022-12-04T02:02:16.113Z,546.00
2022-12-04T02:04:43.737Z,540.83
2022-12-04T02:07:11.099Z,543.28
2022-12-04T02:09:39.560Z,539.83
2022-12-04T02:12:24.608Z,543.50
2022-12-04T02:15:18.652Z,543.38
2022-12-04T02:18:08.594Z,540.87
2022-12-04T02:20:47.156Z,531.72
2022-12-04T02:23:16.715Z,534.40
2022-12-04T02:26:15.137Z,538.92
2022-12-04T02:28:51.674Z,537.97
2022-12-04T02:31:34.648Z,534.70
2022-12-04T02:34:06.730Z,531.40
2022-12-04T02:36:39.638Z,535.17
2022-12-04T02:39:16.269Z,530.60
2022-12-04T02:42:04.089Z,531.15
2022-12-04T02:45:06.263Z,535.42
2022-12-04T02:47:36.232Z,530.25
2022-12-04T02:50:08.260Z,530.45
2022-12-04T02:52:53.933Z,533.80
2022-12-04T02:55:28.091Z,535.42
2022-12-04T02:58:00.217Z,537.13
2022-12-04T03:00:29.212Z,538.83
2022-12-04T03:03:01.864Z,547.92
2022-12-04T03:05:39.096Z,546.78
2022-12-04T03:08:15.169Z,548.20
2022-12-04T03:10:49.190Z,547.25
2022-12-04T03:13:38.300Z,547.40
2022-12-04T03:16:11.134Z,543.53
2022-12-04T03:18:42.910Z,546.20
2022-12-04T03:21:21.559Z,548.63
2022-12-04T03:23:54.313Z,544.50
2022-12-04T03:26:32.440Z,540.35
2022-12-04T03:29:06.920Z,541.20
2022-12-04T03:32:12.130Z,542.23
2022-12-04T03:34:51.363Z,546.47
2022-12-04T03:37:24.463Z,542.35
2022-12-04T03:39:57.501Z,541.55
2022-12-04T03:42:32.538Z,539.10
2022-12-04T03:45:17.518Z,543.95
2022-12-04T03:47:59.293Z,534.33
2022-12-04T03:50:32.692Z,535.13
2022-12-04T03:53:24.928Z,540.25
2022-12-04T03:56:13.898Z,530.90
2022-12-04T03:58:46.594Z,526.33
2022-12-04T04:01:17.996Z,530.97
2022-12-04T04:03:51.671Z,532.13
2022-12-04T04:06:23.933Z,535.38
2022-12-04T04:08:55.147Z,533.38
2022-12-04T04:11:34.364Z,533.08
2022-12-04T04:14:24.675Z,532.25
2022-12-04T04:17:18.551Z,529.63
2022-12-04T04:20:09.048Z,530.20
2022-12-04T04:22:56.169Z,525.55
2022-12-04T04:25:26.716Z,526.60
2022-12-04T04:27:58.108Z,529.78
2022-12-04T04:30:25.899Z,537.53
2022-12-04T04:33:13.137Z,539.72
2022-12-04T04:51:23.222Z,547.70
2022-12-04T04:53:52.551Z,548.58
2022-12-04T04:56:21.332Z,547.95
2022-12-04T04:58:48.225Z,545.43
2022-12-04T05:01:20.671Z,548.40
2022-12-04T05:03:47.413Z,549.35
2022-12-04T05:06:14.309Z,540.30
2022-12-04T05:08:41.108Z,546.03
2022-12-04T05:11:13.015Z,542.70
2022-12-04T05:13:39.801Z,549.07
2022-12-04T05:16:10.345Z,550.47
2022-12-04T05:18:37.523Z,548.13
2022-12-04T05:21:09.021Z,544.05
2022-12-04T05:23:35.855Z,537.40
2022-12-04T05:26:05.109Z,547.77
2022-12-04T05:28:31.770Z,541.35
2022-12-04T05:31:02.220Z,533.53
2022-12-04T05:33:29.893Z,536.33
2022-12-04T05:36:00.725Z,539.03
2022-12-04T05:38:27.859Z,541.13
2022-12-04T05:40:54.484Z,545.95
2022-12-04T05:43:21.109Z,544.35
2022-12-04T05:45:47.693Z,547.55
2022-12-04T05:48:14.411Z,544.50
2022-12-04T05:50:41.238Z,543.92
2022-12-04T05:53:08.176Z,540.73
2022-12-04T05:55:34.863Z,542.22
2022-12-04T05:58:01.579Z,541.50
2022-12-04T06:00:28.838Z,532.57
2022-12-04T06:02:55.419Z,531.70
2022-12-04T06:05:23.459Z,539.85
2022-12-04T06:07:50.239Z,536.05
2022-12-04T06:10:16.814Z,541.63
2022-12-04T06:12:43.529Z,543.97
2022-12-04T06:15:10.700Z,545.78
2022-12-04T06:17:37.239Z,538.50
2022-12-04T06:20:09.554Z,537.15
2022-12-04T06:22:37.902Z,531.28
2022-12-04T06:25:04.663Z,538.75
2022-12-04T06:27:31.314Z,541.47
2022-12-04T06:29:58.169Z,543.47
2022-12-04T06:32:25.103Z,550.40
2022-12-04T06:34:53.395Z,551.60
2022-12-04T06:37:22.686Z,547.58
2022-12-04T06:39:49.412Z,537.78
2022-12-04T06:42:16.784Z,540.13
2022-12-04T06:44:43.428Z,554.45
2022-12-04T06:47:10.115Z,546.95
2022-12-04T06:49:36.676Z,542.97
2022-12-04T06:52:03.878Z,536.03
2022-12-04T06:54:30.470Z,547.97
2022-12-04T06:56:57.097Z,536.33
2022-12-04T06:59:23.828Z,539.25
2022-12-04T07:01:50.673Z,536.20
2022-12-04T07:04:17.351Z,540.42
2022-12-04T07:06:44.075Z,551.67
2022-12-04T07:09:14.667Z,558.20
2022-12-04T07:11:42.368Z,552.22
2022-12-04T07:14:09.259Z,544.35
2022-12-04T07:16:40.604Z,545.40
2022-12-04T07:19:12.887Z,546.85
2022-12-04T07:21:40.059Z,549.08
2022-12-04T07:24:06.802Z,554.22
2022-12-04T07:26:35.135Z,547.78
2022-12-04T07:29:01.807Z,546.13
2022-12-04T07:31:29.555Z,555.13
2022-12-04T07:33:57.433Z,547.00
2022-12-04T07:36:25.820Z,536.75
2022-12-04T07:38:52.506Z,537.28
2022-12-04T07:41:19.825Z,547.20
2022-12-04T07:43:46.657Z,539.67
2022-12-04T07:46:22.587Z,531.92
2022-12-04T07:48:49.329Z,531.55
2022-12-04T07:51:23.096Z,539.05
2022-12-04T07:53:51.059Z,533.22
2022-12-04T07:56:18.635Z,543.53
2022-12-04T07:58:45.978Z,534.40
2022-12-04T08:01:16.338Z,538.40
2022-12-04T08:03:48.116Z,547.80
2022-12-04T08:06:17.850Z,545.35
2022-12-04T08:08:45.094Z,538.83
2022-12-04T08:11:15.003Z,530.00
2022-12-04T08:13:41.862Z,528.75
2022-12-04T08:16:10.326Z,539.17
2022-12-04T08:18:37.217Z,536.10
2022-12-04T08:21:08.315Z,534.95
2022-12-04T08:23:35.682Z,537.45
2022-12-04T08:26:02.797Z,548.65
2022-12-04T08:28:29.779Z,525.00
2022-12-04T08:31:03.223Z,534.72
2022-12-04T08:33:29.866Z,532.57
2022-12-04T08:35:56.536Z,521.35
2022-12-04T08:38:23.109Z,529.75
2022-12-04T08:40:49.995Z,541.55
2022-12-04T08:43:16.632Z,547.00
2022-12-04T08:45:43.280Z,546.75
2022-12-04T08:48:09.960Z,541.60
2022-12-04T08:50:36.499Z,532.90
2022-12-04T08:53:03.127Z,540.60
2022-12-04T08:55:29.696Z,534.67
2022-12-04T08:57:56.253Z,536.03
2022-12-04T09:00:23.020Z,543.60
2022-12-04T09:02:50.155Z,529.17
2022-12-04T09:05:17.171Z,536.60
2022-12-04T09:07:43.804Z,525.15
2022-12-04T09:10:11.101Z,528.00
2022-12-04T09:12:37.765Z,512.13
2022-12-04T09:15:04.748Z,507.98
2022-12-04T09:17:31.525Z,513.05
2022-12-04T09:20:01.222Z,510.10
2022-12-04T09:22:45.439Z,518.07
2022-12-04T09:25:12.469Z,515.08
2022-12-04T09:27:41.621Z,516.70
2022-12-04T09:30:10.136Z,511.00
2022-12-04T09:32:36.882Z,513.15
2022-12-04T09:35:05.022Z,514.90
2022-12-04T09:37:33.423Z,524.10
2022-12-04T09:40:00.127Z,518.95
2022-12-04T09:42:54.833Z,518.70
2022-12-04T09:45:25.334Z,521.28
2022-12-04T09:47:59.341Z,507.75
2022-12-04T09:50:33.874Z,509.70
2022-12-04T09:53:10.815Z,509.58
2022-12-04T09:55:41.173Z,511.70
2022-12-04T09:58:14.991Z,514.08
2022-12-04T10:00:44.235Z,521.67
2022-12-04T10:03:16.772Z,510.10
2022-12-04T10:05:59.488Z,507.95
2022-12-04T10:08:35.884Z,509.27
2022-12-04T10:11:12.209Z,505.02
2022-12-04T10:13:57.397Z,499.33
2022-12-04T10:16:49.121Z,493.35
2022-12-04T10:19:18.563Z,507.45
2022-12-04T10:21:51.817Z,514.15
2022-12-04T10:24:33.415Z,512.42
2022-12-04T10:27:06.698Z,516.75
2022-12-04T10:29:35.979Z,524.45
2022-12-04T10:32:26.834Z,521.17
2022-12-04T10:34:56.541Z,523.65
2022-12-04T10:37:24.244Z,519.67
2022-12-04T10:40:14.122Z,524.75
2022-12-04T10:42:54.049Z,519.92
2022-12-04T10:45:23.096Z,511.25
2022-12-04T10:47:51.861Z,517.50
2022-12-04T10:50:21.920Z,517.08
2022-12-04T10:52:48.681Z,510.23
2022-12-04T10:55:15.319Z,511.60
2022-12-04T10:57:45.141Z,507.80
2022-12-04T11:00:27.107Z,511.98
2022-12-04T11:02:55.717Z,502.33
2022-12-04T11:05:53.261Z,502.17
2022-12-04T11:08:26.457Z,497.05
2022-12-04T11:11:05.387Z,502.13
2022-12-04T11:13:32.066Z,504.67
2022-12-04T11:15:59.314Z,504.60
2022-12-04T11:18:31.289Z,498.58
2022-12-04T11:21:06.908Z,505.75
2022-12-04T11:23:44.552Z,506.47
2022-12-04T11:26:12.067Z,503.58
2022-12-04T11:28:43.739Z,506.83
2022-12-04T11:31:18.196Z,507.45
2022-12-04T11:34:02.937Z,499.40
2022-12-04T11:36:34.962Z,506.70
2022-12-04T11:39:15.690Z,506.08
2022-12-04T11:41:42.775Z,509.35
2022-12-04T11:44:27.594Z,500.92
2022-12-04T11:46:58.492Z,496.83
2022-12-04T11:49:26.659Z,502.27
2022-12-04T11:52:05.202Z,510.20
2022-12-04T11:54:51.006Z,505.80
2022-12-04T11:57:27.515Z,494.90
2022-12-04T12:00:00.046Z,492.53
2022-12-04T12:02:38.578Z,496.80
2022-12-04T12:05:18.602Z,505.52
2022-12-04T12:08:12.317Z,506.70
2022-12-04T12:11:05.320Z,502.58
2022-12-04T12:13:57.244Z,503.83
2022-12-04T12:17:04.412Z,496.10
2022-12-04T12:19:58.017Z,493.70
2022-12-04T12:22:54.235Z,501.60
2022-12-04T12:25:38.603Z,507.07
2022-12-04T12:28:29.642Z,501.20
2022-12-04T12:31:17.260Z,493.00
2022-12-04T12:33:51.817Z,497.73
2022-12-04T12:36:21.761Z,498.10
2022-12-04T12:38:53.810Z,497.88
2022-12-04T12:41:26.822Z,500.90
2022-12-04T12:44:21.486Z,494.00
2022-12-04T12:47:00.828Z,500.60
2022-12-04T12:49:47.709Z,496.90
2022-12-04T12:52:39.091Z,501.30
2022-12-04T12:55:26.923Z,490.35
2022-12-04T12:58:04.572Z,489.73
2022-12-04T13:00:36.848Z,495.98
2022-12-04T13:03:19.376Z,479.90
2022-12-04T13:05:51.838Z,473.43
2022-12-04T13:08:25.843Z,482.25
2022-12-04T13:11:08.894Z,496.40
2022-12-04T13:13:43.263Z,498.95
2022-12-04T13:16:17.777Z,498.03
2022-12-04T13:19:04.670Z,502.65
2022-12-04T13:21:37.316Z,503.42
2022-12-04T13:24:16.094Z,491.15
2022-12-04T13:27:05.849Z,487.25
2022-12-04T13:30:09.957Z,473.20
2022-12-04T13:33:08.982Z,489.42
2022-12-04T13:36:07.127Z,489.92
2022-12-04T13:38:58.037Z,494.55
2022-12-04T13:41:27.216Z,501.23
2022-12-04T13:43:55.052Z,498.27
2022-12-04T13:46:40.998Z,502.73
2022-12-04T13:49:31.887Z,498.30
2022-12-04T13:52:00.266Z,503.27
2022-12-04T13:54:31.596Z,508.88
2022-12-04T13:57:30.559Z,511.13
2022-12-04T14:00:23.946Z,503.02
2022-12-04T14:02:55.637Z,509.37
2022-12-04T14:05:42.734Z,508.98
2022-12-04T14:08:24.935Z,499.92
2022-12-04T14:11:17.362Z,499.10
2022-12-04T14:13:54.179Z,499.38
2022-12-04T14:16:30.645Z,494.75
2022-12-04T14:19:00.431Z,490.42
2022-12-04T14:21:45.391Z,493.02
2022-12-04T14:24:32.046Z,493.90
2022-12-04T14:27:14.322Z,496.73
2022-12-04T14:29:48.066Z,498.60
2022-12-04T14:32:21.735Z,500.38
2022-12-04T14:34:49.820Z,508.77
2022-12-04T14:37:27.763Z,500.98
2022-12-04T14:39:56.959Z,500.65
2022-12-04T14:42:31.426Z,514.53
2022-12-04T14:45:04.025Z,516.58
2022-12-04T14:47:48.264Z,519.10
2022-12-04T14:50:55.586Z,511.65
2022-12-04T14:53:49.994Z,527.88
2022-12-04T14:56:31.396Z,526.97
2022-12-04T14:58:59.258Z,515.97
2022-12-04T15:01:30.626Z,520.90
2022-12-04T15:04:04.017Z,509.95
2022-12-04T15:06:33.229Z,516.70
2022-12-04T15:09:21.102Z,509.50
2022-12-04T15:12:11.629Z,500.52
2022-12-04T15:14:47.261Z,496.85
2022-12-04T15:17:16.142Z,494.75
2022-12-04T15:19:42.811Z,505.17
2022-12-04T15:22:26.061Z,509.10
2022-12-04T15:24:54.957Z,493.70
2022-12-04T15:27:31.678Z,499.13
2022-12-04T15:30:01.308Z,507.50
2022-12-04T15:32:28.831Z,507.55
2022-12-04T15:35:01.208Z,503.40
2022-12-04T15:37:32.777Z,486.55
2022-12-04T15:40:00.033Z,496.60
2022-12-04T15:42:28.028Z,501.98
2022-12-04T15:45:01.899Z,493.52
2022-12-04T15:47:36.679Z,499.87
2022-12-04T15:50:27.087Z,508.37
2022-12-04T15:53:22.865Z,501.80
2022-12-04T15:55:52.391Z,509.38
2022-12-04T15:58:22.875Z,494.70
2022-12-04T16:00:56.679Z,506.02
2022-12-04T16:03:43.553Z,511.33
2022-12-04T16:06:31.014Z,492.38
2022-12-04T16:09:17.078Z,494.98
2022-12-04T16:11:44.605Z,487.38
2022-12-04T16:14:11.262Z,481.55
2022-12-04T16:16:43.673Z,487.05
2022-12-04T16:19:19.133Z,480.08
2022-12-04T16:21:46.545Z,481.50
2022-12-04T16:24:14.038Z,485.63
2022-12-04T16:26:41.545Z,490.73
2022-12-04T16:29:09.011Z,483.35
2022-12-04T16:31:38.008Z,478.20
2022-12-04T16:34:04.778Z,478.27
2022-12-04T16:36:31.417Z,482.85
2022-12-04T16:38:58.013Z,477.17
2022-12-04T16:41:24.770Z,491.97
2022-12-04T16:43:57.855Z,489.33
2022-12-04T16:46:27.557Z,490.13
2022-12-04T16:48:54.136Z,486.70
2022-12-04T16:51:24.041Z,489.70
2022-12-04T16:53:51.947Z,490.23
2022-12-04T16:56:19.767Z,486.10
2022-12-04T16:58:46.647Z,490.92
2022-12-04T17:01:21.244Z,486.85
2022-12-04T17:03:48.744Z,486.17
2022-12-04T17:06:16.170Z,490.20
2022-12-04T17:08:42.868Z,490.98
2022-12-04T17:11:13.276Z,483.50
2022-12-04T17:13:40.026Z,487.10
2022-12-04T17:16:06.688Z,491.43
2022-12-04T17:18:33.250Z,487.03
2022-12-04T17:20:59.871Z,490.00
2022-12-04T17:23:27.265Z,496.30
2022-12-04T17:25:53.848Z,489.40
2022-12-04T17:28:20.392Z,490.87
2022-12-04T17:30:47.196Z,486.92
2022-12-04T17:33:14.124Z,477.30
2022-12-04T17:35:43.400Z,474.00
2022-12-04T17:38:10.040Z,481.70
2022-12-04T17:40:36.663Z,475.10
2022-12-04T17:43:03.520Z,487.25
2022-12-04T17:45:30.630Z,479.77
2022-12-04T17:47:58.647Z,491.63
2022-12-04T17:50:25.194Z,488.48
2022-12-04T17:52:51.967Z,494.25
2022-12-04T17:55:18.600Z,493.08
2022-12-04T17:57:45.189Z,497.58
2022-12-04T18:00:12.130Z,503.03
2022-12-04T18:02:42.354Z,501.33
2022-12-04T18:05:09.864Z,505.73
2022-12-04T18:07:36.676Z,507.38
2022-12-04T18:10:03.537Z,506.67
2022-12-04T18:12:30.161Z,513.17
2022-12-04T18:14:56.752Z,509.27
2022-12-04T18:17:23.520Z,505.42
2022-12-04T18:19:50.127Z,526.63
2022-12-04T18:22:16.826Z,508.70
2022-12-04T18:24:43.417Z,501.55
2022-12-04T18:27:10.020Z,500.83
2022-12-04T18:29:36.967Z,497.95
2022-12-04T18:32:03.792Z,494.98
2022-12-04T18:34:30.501Z,496.02
2022-12-04T18:36:57.273Z,483.88
2022-12-04T18:39:25.658Z,488.55
2022-12-04T18:41:55.151Z,483.63
2022-12-04T18:44:22.109Z,485.17
2022-12-04T18:46:49.219Z,490.17
2022-12-04T18:49:15.803Z,494.65
2022-12-04T18:51:49.140Z,493.33
2022-12-04T18:54:22.080Z,479.30
2022-12-04T18:56:49.607Z,470.83
2022-12-04T18:59:20.054Z,463.43
2022-12-04T19:01:50.472Z,467.97
2022-12-04T19:04:19.428Z,477.20
2022-12-04T19:06:51.747Z,458.38
2022-12-04T19:09:35.438Z,469.75
2022-12-04T19:12:08.889Z,477.50
2022-12-04T19:14:35.476Z,472.98
2022-12-04T19:17:02.078Z,465.77
2022-12-04T19:19:31.566Z,472.00
2022-12-04T19:21:59.036Z,464.33
2022-12-04T19:24:27.119Z,465.05
2022-12-04T19:26:54.045Z,462.27
2022-12-04T19:29:20.626Z,465.83
2022-12-04T19:31:47.466Z,474.65
2022-12-04T19:34:14.084Z,478.30
2022-12-04T19:36:41.254Z,479.27
2022-12-04T19:39:07.974Z,457.92
2022-12-04T19:41:37.035Z,460.63
2022-12-04T19:44:25.991Z,466.98
2022-12-04T19:46:50.986Z,469.10
2022-12-04T19:49:17.525Z,459.65
2022-12-04T19:51:44.233Z,460.17
2022-12-04T19:54:12.973Z,469.45
2022-12-04T19:56:40.134Z,464.08
2022-12-04T19:59:07.996Z,479.63
2022-12-04T20:01:35.617Z,479.02
2022-12-04T20:04:05.646Z,487.33
2022-12-04T20:06:38.591Z,488.05
2022-12-04T20:09:07.871Z,487.27
2022-12-04T20:11:35.609Z,487.20
2022-12-04T20:14:03.454Z,471.90
2022-12-04T20:16:32.668Z,475.83
2022-12-04T20:19:01.231Z,471.17
2022-12-04T20:21:31.949Z,477.73
2022-12-04T20:24:02.524Z,476.17
2022-12-04T20:26:33.440Z,467.75
2022-12-04T20:29:01.180Z,466.02
2022-12-04T20:31:33.044Z,475.30
2022-12-04T20:34:01.884Z,486.10
2022-12-04T20:36:29.975Z,486.75
2022-12-04T20:38:58.240Z,490.42
2022-12-04T20:41:29.911Z,488.67
2022-12-04T20:43:59.967Z,503.55
2022-12-04T20:46:31.625Z,498.10
2022-12-04T20:49:00.927Z,501.35
2022-12-04T20:51:31.048Z,526.13
2022-12-04T20:53:59.174Z,506.25
2022-12-04T20:56:30.459Z,516.83
2022-12-04T20:58:58.290Z,521.40
2022-12-04T21:01:25.236Z,514.58
2022-12-04T21:03:52.963Z,519.17
2022-12-04T21:06:23.394Z,518.95
2022-12-04T21:08:54.621Z,521.45
2022-12-04T21:11:29.556Z,511.20
2022-12-04T21:14:16.209Z,514.42
2022-12-04T21:16:43.655Z,513.53
2022-12-04T21:19:11.786Z,512.85
2022-12-04T21:21:38.924Z,513.28
2022-12-04T21:24:08.405Z,521.93
2022-12-04T21:26:35.170Z,537.33
2022-12-04T21:29:02.840Z,539.33
2022-12-04T21:31:30.933Z,537.03
2022-12-04T21:34:03.047Z,528.30
2022-12-04T21:36:29.654Z,534.10
2022-12-04T21:38:56.758Z,528.80
2022-12-04T21:41:42.659Z,528.17
2022-12-04T21:44:15.986Z,538.10
2022-12-04T21:46:43.646Z,538.72
2022-12-04T21:49:11.068Z,533.17
2022-12-04T21:54:25.890Z,544.35
2022-12-04T21:56:52.566Z,543.10
2022-12-04T21:59:19.210Z,543.67
2022-12-04T22:01:46.010Z,540.40
2022-12-04T22:04:12.919Z,548.23
2022-12-04T22:06:39.556Z,545.53
2022-12-04T22:09:08.738Z,541.07
2022-12-04T22:11:35.633Z,532.65
2022-12-04T22:14:02.572Z,532.67
2022-12-04T22:16:30.883Z,518.35
2022-12-04T22:18:59.487Z,525.05
2022-12-04T22:21:27.467Z,527.87
2022-12-04T22:23:58.951Z,525.33
2022-12-04T22:26:27.059Z,528.67
2022-12-04T22:28:53.948Z,522.08
2022-12-04T22:31:23.076Z,523.85
2022-12-04T22:33:51.982Z,521.63
2022-12-04T22:36:30.519Z,516.57
2022-12-04T22:39:12.912Z,520.35
2022-12-04T22:41:39.557Z,517.35
2022-12-04T22:44:06.260Z,513.53
2022-12-04T22:46:33.349Z,514.20
2022-12-04T22:49:00.160Z,520.78
2022-12-04T22:51:27.571Z,519.78
2022-12-04T22:53:56.284Z,518.00
2022-12-04T22:56:31.243Z,514.55
2022-12-04T22:58:58.716Z,512.05
2022-12-04T23:01:27.730Z,513.37
2022-12-04T23:03:54.725Z,513.50
2022-12-04T23:06:24.154Z,519.78
2022-12-04T23:08:58.936Z,520.45
2022-12-04T23:11:26.377Z,508.42
2022-12-04T23:14:00.312Z,518.53
2022-12-04T23:16:29.536Z,516.85
2022-12-04T23:18:56.772Z,519.20
2022-12-04T23:21:24.151Z,519.55
2022-12-04T23:23:52.666Z,518.88
2022-12-04T23:26:22.469Z,517.47
2022-12-04T23:28:49.104Z,524.60
2022-12-04T23:31:15.974Z,516.97
2022-12-04T23:33:42.684Z,511.23
2022-12-04T23:36:11.491Z,507.52
2022-12-04T23:38:40.179Z,509.17
2022-12-04T23:41:15.146Z,513.10
2022-12-04T23:43:43.072Z,505.13
2022-12-04T23:46:11.985Z,509.83
2022-12-04T23:48:43.024Z,513.17
2022-12-04T23:51:11.654Z,520.80
2022-12-04T23:53:38.257Z,493.05
2022-12-04T23:56:15.920Z,522.85
2022-12-04T23:58:43.486Z,513.47
